Time;durP1;ratioP1;P1;durP2;ratioP2;P2;SDS_P1;SDS_P2;PMS_P1;PMS_P2;Temp;Humidity;BMP_temperature;BMP_pressure;BME280_temperature;BME280_humidity;BME280_pressure;Samples;Min_cycle;Max_cycle;Signal;HPM_P1;HPM_P2
2022/05/03 06:39:38;;;;;;;9.35;5.32;;;;;;;14.52;47.94;101863.56;5089795;27;20146;-61
2022/05/03 06:42:05;;;;;;;9.10;5.85;;;;;;;14.71;46.61;101866.41;5075467;28;20497;-60
2022/05/03 06:44:30;;;;;;;10.23;5.53;;;;;;;14.87;45.64;101864.78;5075667;28;20025;-61
2022/05/03 06:46:57;;;;;;;8.77;5.22;;;;;;;15.08;45.40;101859.66;5075262;28;20040;-60
2022/05/03 06:49:23;;;;;;;11.40;5.57;;;;;;;15.30;45.48;101859.84;5075497;28;20029;-60
2022/05/03 06:51:48;;;;;;;8.27;5.20;;;;;;;15.49;44.17;101862.63;5075206;28;20032;-61
2022/05/03 06:54:13;;;;;;;9.10;5.65;;;;;;;15.76;43.61;101866.41;5075307;28;20044;-61
2022/05/03 06:56:39;;;;;;;9.65;5.10;;;;;;;15.99;42.49;101864.72;5075273;28;20020;-61
2022/05/03 06:59:08;;;;;;;8.43;5.05;;;;;;;16.23;40.78;101860.38;5075126;28;20389;-61
2022/05/03 07:01:34;;;;;;;13.05;5.07;;;;;;;16.43;39.93;101864.00;5074826;28;20024;-61
2022/05/03 07:04:00;;;;;;;10.38;4.45;;;;;;;16.58;38.38;101867.63;5075416;28;20028;-61
2022/05/03 07:06:25;;;;;;;8.80;4.35;;;;;;;16.75;37.82;101872.13;5074537;28;20028;-60
2022/05/03 07:08:51;;;;;;;11.60;4.43;;;;;;;16.92;36.65;101872.16;5074913;28;20021;-61
2022/05/03 07:11:16;;;;;;;10.38;4.38;;;;;;;17.02;35.94;101871.25;5074984;28;20025;-61
2022/05/03 07:13:41;;;;;;;7.90;4.43;;;;;;;17.19;35.83;101871.25;5074879;28;20078;-61
2022/05/03 07:16:07;;;;;;;6.85;4.35;;;;;;;17.30;35.36;101883.72;5074829;28;20073;-61
2022/05/03 07:24:00;;;;;;;9.60;4.32;;;;;;;17.79;33.88;101870.34;5074875;28;20115;-61
2022/05/03 07:26:26;;;;;;;9.75;3.75;;;;;;;17.94;32.82;101865.84;5074605;28;20029;-61
2022/05/03 07:28:51;;;;;;;8.32;4.07;;;;;;;18.09;32.14;101874.69;5074290;28;20035;-60
2022/05/03 07:31:17;;;;;;;8.52;4.13;;;;;;;18.20;33.18;101871.09;5056576;28;20107;-61
2022/05/03 07:33:42;;;;;;;10.73;4.15;;;;;;;18.37;32.88;101876.38;5074603;28;20024;-60
2022/05/03 07:36:09;;;;;;;8.77;3.97;;;;;;;18.48;31.19;101877.16;5074432;28;20355;-61
2022/05/03 07:38:34;;;;;;;6.32;4.00;;;;;;;18.41;30.67;101878.09;5075214;28;20024;-61
2022/05/03 07:41:00;;;;;;;7.05;3.90;;;;;;;18.52;29.26;101865.56;5094604;28;20024;-61
2022/05/03 07:43:25;;;;;;;8.80;3.75;;;;;;;18.80;29.61;101877.91;5094370;28;20027;-61
2022/05/03 07:45:51;;;;;;;6.55;3.38;;;;;;;19.04;28.20;101880.41;5094316;28;20111;-61
2022/05/03 07:48:16;;;;;;;5.95;3.30;;;;;;;19.12;28.06;101878.56;5094429;28;20060;-61
2022/05/03 07:50:43;;;;;;;6.72;3.40;;;;;;;19.27;28.09;101878.44;5076353;28;20024;-61
2022/05/03 07:53:09;;;;;;;9.10;3.50;;;;;;;19.35;28.20;101875.69;5094590;28;20032;-61
2022/05/03 07:55:34;;;;;;;7.97;3.45;;;;;;;19.65;27.03;101871.84;5094135;28;20027;-61
2022/05/03 07:57:59;;;;;;;5.35;3.30;;;;;;;19.84;27.32;101874.34;5094246;28;20024;-62
2022/05/03 08:00:26;;;;;;;7.95;3.47;;;;;;;19.90;26.50;101869.78;5094077;28;20027;-61
2022/05/03 08:02:52;;;;;;;7.00;3.63;;;;;;;19.85;27.29;101865.38;5094176;28;20032;-61
2022/05/03 08:05:17;;;;;;;4.70;3.60;;;;;;;20.07;28.42;101864.22;5094504;28;20047;-61
2022/05/03 08:07:42;;;;;;;6.40;3.78;;;;;;;20.38;27.08;101870.06;5093945;28;20043;-61
2022/05/03 08:10:08;;;;;;;5.18;3.70;;;;;;;20.67;26.76;101875.06;5094240;28;20100;-61
2022/05/03 08:12:35;;;;;;;6.68;4.00;;;;;;;20.79;27.13;101871.31;5094164;28;20055;-61
2022/05/03 08:15:01;;;;;;;8.68;3.58;;;;;;;21.06;26.11;101874.47;5093903;28;20034;-61
2022/05/03 08:17:28;;;;;;;6.50;3.45;;;;;;;21.14;25.13;101875.25;5093334;28;20027;-61
2022/05/03 08:19:54;;;;;;;6.03;3.70;;;;;;;21.13;25.35;101874.38;5093896;28;20073;-61
2022/05/03 08:22:20;;;;;;;5.57;3.50;;;;;;;21.19;25.01;101878.75;5093941;28;20115;-61
2022/05/03 08:24:45;;;;;;;8.20;3.78;;;;;;;21.23;25.27;101869.72;5093752;28;20095;-61
2022/05/03 08:27:10;;;;;;;8.13;4.32;;;;;;;21.47;25.30;101871.13;5093670;28;20111;-61
2022/05/03 08:29:36;;;;;;;5.50;3.72;;;;;;;21.50;25.39;101871.09;5093478;28;20023;-61
2022/05/03 08:32:02;;;;;;;8.40;4.30;;;;;;;21.44;25.75;101880.13;5093674;28;20035;-61
2022/05/03 08:34:28;;;;;;;6.30;3.95;;;;;;;21.72;25.45;101877.81;5093508;28;20389;-61
2022/05/03 08:42:23;;;;;;;8.63;4.70;;;;;;;22.06;25.88;101885.25;5093654;28;20086;-61
2022/05/03 08:44:49;;;;;;;9.15;4.55;;;;;;;22.02;26.02;101877.25;5093459;28;20020;-61
2022/05/03 08:47:18;;;;;;;9.75;5.03;;;;;;;22.05;27.00;101875.38;5093317;28;20046;-61
2022/05/03 08:49:49;;;;;;;8.32;4.88;;;;;;;22.49;27.19;101882.56;5093351;28;20059;-61
2022/05/03 08:52:17;;;;;;;10.00;4.90;;;;;;;22.58;26.71;101885.97;5093413;28;20089;-61
2022/05/03 08:54:43;;;;;;;9.27;5.10;;;;;;;22.56;25.23;101877.91;5093377;28;20115;-62
2022/05/03 08:57:08;;;;;;;7.35;5.25;;;;;;;22.92;26.13;101884.28;5093295;28;20107;-61
2022/05/03 08:59:34;;;;;;;10.05;5.60;;;;;;;22.92;25.84;101886.09;5093418;28;20077;-61
2022/05/03 09:02:00;;;;;;;9.00;4.95;;;;;;;23.13;25.58;101880.19;5093091;28;20048;-61
2022/05/03 09:04:25;;;;;;;9.00;5.13;;;;;;;23.32;26.18;101875.19;5092992;28;20066;-61
2022/05/03 09:06:51;;;;;;;9.48;5.80;;;;;;;23.36;25.59;101876.88;5093120;28;20024;-61
2022/05/03 09:09:19;;;;;;;8.15;5.47;;;;;;;23.27;26.72;101863.66;5074900;28;20103;-62
2022/05/03 09:11:47;;;;;;;6.97;5.30;;;;;;;23.30;26.96;101876.16;5092879;28;20020;-61
2022/05/03 09:14:42;;;;;;;11.18;5.80;;;;;;;23.54;27.35;101882.72;5092901;28;20024;-61
2022/05/03 09:17:08;;;;;;;8.38;5.57;;;;;;;23.56;25.68;101878.19;5081879;28;20044;-61
2022/05/03 09:19:33;;;;;;;9.30;5.63;;;;;;;23.52;26.58;101865.69;5092837;28;20150;-61
2022/05/03 09:25:02;;;;;;;9.48;5.95;;;;;;;23.83;26.23;101884.66;5092899;28;20047;-61
2022/05/03 09:27:27;;;;;;;9.73;5.47;;;;;;;23.76;26.22;101875.84;5092768;28;20060;-62
2022/05/03 09:30:08;;;;;;;11.20;5.07;;;;;;;23.90;26.06;101875.47;5092703;28;20084;-61
2022/05/03 09:32:37;;;;;;;7.95;5.43;;;;;;;23.84;26.26;101876.50;5092621;28;20095;-62
2022/05/03 09:35:04;;;;;;;9.95;5.60;;;;;;;23.98;26.63;101877.03;5092665;28;20063;-61
2022/05/03 09:37:42;;;;;;;6.68;5.20;;;;;;;24.28;26.51;101882.44;5092667;28;20036;-62
2022/05/03 09:40:09;;;;;;;7.45;5.75;;;;;;;24.26;25.75;101872.63;5092653;28;20059;-61
2022/05/03 09:42:36;;;;;;;7.53;5.50;;;;;;;24.33;26.59;101868.81;5092475;28;20469;-61
2022/05/03 09:45:04;;;;;;;8.48;5.10;;;;;;;24.38;27.00;101870.47;5092636;28;20031;-61
2022/05/03 09:47:47;;;;;;;7.38;5.07;;;;;;;24.80;26.15;101872.78;5092548;28;20096;-61
2022/05/03 09:50:35;;;;;;;6.45;4.65;;;;;;;24.96;26.21;101874.03;5092625;28;20443;-61
2022/05/03 09:53:14;;;;;;;8.07;5.47;;;;;;;24.96;25.78;101874.03;5092576;28;20027;-62
2022/05/03 09:55:41;;;;;;;7.68;4.70;;;;;;;25.11;25.35;101866.38;5092382;28;20119;-62
2022/05/03 09:58:10;;;;;;;7.72;4.45;;;;;;;25.29;25.22;101870.28;5092410;28;20063;-61
2022/05/03 10:00:38;;;;;;;6.57;5.13;;;;;;;25.20;25.06;101874.19;5092357;28;20024;-61
2022/05/03 10:03:07;;;;;;;7.55;5.07;;;;;;;25.17;25.45;101864.34;5092480;28;20024;-61
2022/05/03 10:05:34;;;;;;;7.57;5.90;;;;;;;25.14;25.36;101869.00;5092319;28;20032;-61
2022/05/03 10:08:00;;;;;;;11.15;5.60;;;;;;;25.12;25.56;101863.63;5074274;28;20028;-62
2022/05/03 10:10:27;;;;;;;11.20;5.75;;;;;;;25.27;24.79;101864.94;5092114;28;20024;-62
2022/05/03 10:12:56;;;;;;;8.90;5.00;;;;;;;25.02;25.61;101866.66;5092326;28;20487;-61
2022/05/03 10:21:29;;;;;;;10.80;5.50;;;;;;;25.52;25.87;101861.34;5092350;28;20044;-62
2022/05/03 10:24:04;;;;;;;10.45;4.70;;;;;;;25.37;24.99;101860.09;5092205;28;20016;-61
2022/05/03 10:27:01;;;;;;;8.75;5.10;;;;;;;25.26;26.25;101851.44;5092061;28;20063;-62
2022/05/03 10:29:29;;;;;;;9.88;5.63;;;;;;;25.47;25.24;101856.97;5092307;28;20024;-61
2022/05/03 10:31:58;;;;;;;9.63;5.82;;;;;;;25.65;24.74;101846.44;5092114;28;20034;-62
2022/05/03 10:34:43;;;;;;;9.27;5.95;;;;;;;26.10;25.12;101849.31;5092226;28;20028;-62
2022/05/03 10:37:13;;;;;;;6.82;5.20;;;;;;;26.10;25.34;101843.00;5092052;28;20024;-62
2022/05/03 10:39:57;;;;;;;9.63;5.80;;;;;;;26.25;24.08;101845.09;5092309;28;20043;-61
2022/05/03 10:42:27;;;;;;;8.65;5.55;;;;;;;26.17;24.44;101844.56;5095917;28;20032;-62
2022/05/03 10:44:53;;;;;;;8.02;5.20;;;;;;;26.37;24.87;101843.75;5095694;28;20034;-61
2022/05/03 10:47:21;;;;;;;7.27;4.90;;;;;;;26.30;25.79;101844.97;5095503;28;20110;-62
2022/05/03 10:50:11;;;;;;;9.45;6.03;;;;;;;26.35;25.11;101838.41;5095570;28;20319;-62
2022/05/03 10:52:37;;;;;;;8.90;5.60;;;;;;;25.75;25.97;101841.59;5095474;28;20028;-62
2022/05/03 10:55:07;;;;;;;10.40;5.97;;;;;;;25.75;25.96;101833.47;5095548;28;20107;-61
2022/05/03 10:58:11;;;;;;;7.93;5.47;;;;;;;26.08;25.17;101831.31;5095693;28;20120;-62
2022/05/03 11:01:14;;;;;;;8.70;6.35;;;;;;;25.78;25.54;101830.66;5095416;28;20038;-62
2022/05/03 11:03:52;;;;;;;7.93;5.38;;;;;;;25.66;26.09;101826.56;5095455;28;20028;-61
2022/05/03 11:06:18;;;;;;;8.15;5.10;;;;;;;25.67;25.93;101831.03;5095422;28;20031;-62
2022/05/03 11:09:05;;;;;;;6.72;4.90;;;;;;;26.06;26.48;101819.69;5095291;28;20477;-61
2022/05/03 11:11:52;;;;;;;6.07;4.90;;;;;;;26.25;25.06;101825.25;5095086;28;20032;-62
2022/05/03 11:14:18;;;;;;;7.63;5.22;;;;;;;25.54;25.55;101824.31;5095210;28;20532;-61
2022/05/03 11:17:01;;;;;;;9.13;5.50;;;;;;;25.24;26.91;101816.34;5095104;28;20028;-61
2022/05/03 11:19:27;;;;;;;9.02;5.30;;;;;;;25.56;27.40;101815.16;5095096;28;20043;-62
2022/05/03 11:21:53;;;;;;;8.00;5.70;;;;;;;25.60;25.83;101811.41;5094998;28;20380;-62
2022/05/03 11:24:34;;;;;;;7.80;5.47;;;;;;;26.19;24.87;101816.44;5095023;28;20554;-62
2022/05/03 11:27:02;;;;;;;7.72;5.82;;;;;;;26.30;24.22;101812.44;5094926;28;20067;-61
2022/05/03 11:29:30;;;;;;;8.63;5.57;;;;;;;26.75;25.45;101812.41;5094894;28;20024;-61
2022/05/03 11:31:58;;;;;;;6.70;5.22;;;;;;;26.83;24.63;101803.97;5095233;28;20105;-62
2022/05/03 11:34:24;;;;;;;6.80;4.60;;;;;;;26.17;25.31;101807.50;5094679;28;20070;-61
2022/05/03 11:36:52;;;;;;;6.38;4.65;;;;;;;25.64;25.80;101804.94;5095305;28;20521;-62
2022/05/03 11:39:19;;;;;;;6.30;4.88;;;;;;;25.69;26.42;101802.94;5095024;28;20495;-61
2022/05/03 11:41:46;;;;;;;9.32;5.50;;;;;;;26.31;25.79;101806.94;5095327;28;20111;-62
2022/05/03 11:44:12;;;;;;;7.15;5.57;;;;;;;25.97;25.23;101801.97;5095095;28;20104;-62
2022/05/03 11:46:39;;;;;;;6.43;5.22;;;;;;;26.37;26.12;101795.84;5094565;28;20020;-62
2022/05/03 11:49:06;;;;;;;9.43;5.20;;;;;;;27.06;24.25;101790.28;5094434;28;20107;-62
2022/05/03 11:57:11;;;;;;;8.70;6.47;;;;;;;28.10;23.58;101779.34;5094408;28;20054;-62
2022/05/03 11:59:38;;;;;;;7.40;5.88;;;;;;;27.90;23.11;101774.84;5094229;28;20023;-62
2022/05/03 12:02:30;;;;;;;10.52;6.13;;;;;;;27.84;23.46;101776.00;5094311;28;20085;-62
2022/05/03 12:05:00;;;;;;;;;;;;;;;28.09;24.23;101774.81;5094671;28;20051;-62
2022/05/03 12:07:25;;;;;;;7.88;5.50;;;;;;;27.51;23.58;101764.84;5094107;28;19927;-62
2022/05/03 12:09:51;;;;;;;9.43;5.80;;;;;;;27.21;24.53;101772.50;5094203;28;20036;-62
2022/05/03 12:12:45;;;;;;;7.55;4.38;;;;;;;27.52;23.50;101765.72;5093931;28;20020;-62
2022/05/03 12:15:15;;;;;;;7.28;4.32;;;;;;;27.55;22.47;101769.16;5094147;28;20021;-62
2022/05/03 12:18:04;;;;;;;7.28;4.68;;;;;;;27.39;24.27;101768.09;5093932;28;20036;-62
2022/05/03 12:20:46;;;;;;;6.00;4.70;;;;;;;27.01;24.40;101758.91;5093917;28;20016;-62
2022/05/03 12:23:23;;;;;;;7.45;4.97;;;;;;;26.76;24.83;101762.66;5093905;28;20362;-62
2022/05/03 12:25:51;;;;;;;8.45;5.22;;;;;;;26.25;25.33;101761.09;5093753;28;20042;-62
2022/05/03 12:28:17;;;;;;;9.93;5.90;;;;;;;25.97;26.33;101759.50;5093795;28;20155;-62
2022/05/03 12:30:44;;;;;;;9.10;6.03;;;;;;;25.44;26.97;101761.53;5093873;28;20093;-62
2022/05/03 12:33:13;;;;;;;7.43;4.97;;;;;;;25.22;27.49;101751.47;5093811;28;20035;-62
2022/05/03 12:35:42;;;;;;;8.48;4.78;;;;;;;25.23;28.26;101758.66;5093540;28;20024;-61
2022/05/03 12:38:12;;;;;;;8.13;5.40;;;;;;;24.85;28.24;101753.66;5093818;28;20427;-62
2022/05/03 12:40:52;;;;;;;8.30;5.25;;;;;;;24.81;28.93;101742.06;5093280;28;20089;-62
2022/05/03 12:43:27;;;;;;;7.28;5.65;;;;;;;24.80;28.40;101742.13;5093394;28;20031;-62
2022/05/03 12:46:03;;;;;;;10.05;6.75;;;;;;;24.59;30.16;101749.13;5093208;28;20366;-62
2022/05/03 12:48:35;;;;;;;9.23;6.88;;;;;;;24.26;30.89;101734.88;5093552;28;20032;-62
2022/05/03 12:51:01;;;;;;;8.75;6.60;;;;;;;24.44;30.07;101737.00;5093544;28;20020;-61
2022/05/03 12:53:31;;;;;;;8.25;6.78;;;;;;;24.26;30.10;101734.88;5093410;28;20031;-62
2022/05/03 12:58:21;;;;;;;10.15;6.53;;;;;;;24.17;29.98;101738.75;5093560;28;20028;-61
2022/05/03 12:58:45;;;;;;;7.97;6.60;;;;;;;24.19;29.79;101731.47;5093016;28;20047;-61
2022/05/03 13:01:11;;;;;;;10.95;6.82;;;;;;;24.34;29.48;101730.09;5093145;28;20077;-62
2022/05/03 13:03:37;;;;;;;7.82;6.60;;;;;;;24.73;28.96;101731.50;5092754;28;20063;-62
2022/05/03 13:06:03;;;;;;;11.30;6.85;;;;;;;24.61;28.48;101725.63;5093214;28;20052;-62
2022/05/03 13:08:29;;;;;;;8.40;6.35;;;;;;;24.57;28.49;101718.56;5093052;28;20373;-61
2022/05/03 13:10:54;;;;;;;9.27;6.30;;;;;;;24.66;29.16;101723.66;5092956;28;20024;-62
2022/05/03 13:13:20;;;;;;;7.18;5.28;;;;;;;24.86;28.72;101723.84;5092811;28;20035;-61
2022/05/03 13:15:45;;;;;;;9.45;6.00;;;;;;;25.14;29.21;101717.53;5092946;28;20042;-62
2022/05/03 13:18:10;;;;;;;8.43;6.38;;;;;;;25.10;27.30;101714.03;5092918;28;20016;-61
2022/05/03 13:20:38;;;;;;;9.45;6.15;;;;;;;25.29;27.73;101718.78;5093048;28;20023;-61
2022/05/03 13:23:04;;;;;;;6.82;5.30;;;;;;;25.34;26.50;101722.19;5092758;28;20020;-62
2022/05/03 13:25:30;;;;;;;7.55;6.07;;;;;;;25.57;26.56;101713.22;5092713;28;20126;-62
2022/05/03 13:27:56;;;;;;;7.78;5.78;;;;;;;25.94;26.42;101718.09;5092599;28;20020;-62
2022/05/03 13:30:21;;;;;;;12.02;5.53;;;;;;;26.05;26.37;101717.69;5092828;28;20028;-62
2022/05/03 13:32:47;;;;;;;9.00;5.40;;;;;;;25.90;26.20;101713.75;5092799;28;20115;-62
2022/05/03 13:35:13;;;;;;;6.70;5.32;;;;;;;25.66;26.11;101705.63;5092901;28;20360;-62
2022/05/03 13:40:30;;;;;;;7.50;5.70;;;;;;;25.55;27.08;101717.81;5010308;28;20042;-62
2022/05/03 13:43:00;;;;;;;10.05;6.55;;;;;;;25.46;27.96;101710.91;5010593;28;20113;-62
2022/05/03 13:45:27;;;;;;;13.13;6.05;;;;;;;25.48;28.05;101709.00;5010506;28;20089;-62
2022/05/03 13:47:53;;;;;;;10.45;6.60;;;;;;;25.35;28.96;101713.13;5010526;28;20045;-61
2022/05/03 13:50:19;;;;;;;10.75;6.28;;;;;;;25.38;27.96;101716.59;5010550;28;20079;-61
2022/05/03 13:52:45;;;;;;;10.30;6.90;;;;;;;25.06;29.81;101712.34;5010517;28;20153;-62
2022/05/03 13:55:10;;;;;;;8.57;6.70;;;;;;;25.14;29.03;101710.28;5010343;28;20540;-61
2022/05/03 13:57:36;;;;;;;8.30;6.82;;;;;;;25.06;29.18;101706.06;5010466;28;20068;-62
2022/05/03 14:00:04;;;;;;;9.43;7.30;;;;;;;24.98;28.58;101706.31;5010434;28;20137;-61
2022/05/03 14:02:30;;;;;;;7.40;6.07;;;;;;;24.96;29.33;101700.06;5010335;28;20573;-61
2022/05/03 14:04:55;;;;;;;8.27;6.72;;;;;;;24.96;28.86;101709.06;5010315;28;20109;-62
2022/05/03 14:07:20;;;;;;;10.52;7.38;;;;;;;24.93;29.34;101698.38;5010135;28;20172;-62
2022/05/03 14:09:46;;;;;;;9.55;7.53;;;;;;;24.70;31.00;101701.88;5010048;28;20494;-62
2022/05/03 14:12:11;;;;;;;11.60;9.35;;;;;;;24.42;30.94;101701.06;5010235;28;20042;-61
2022/05/03 14:14:37;;;;;;;23.52;14.80;;;;;;;24.18;33.64;101703.56;4994585;28;20030;-62
2022/05/03 14:17:04;;;;;;;20.67;15.60;;;;;;;23.60;34.90;101707.19;5040476;28;20055;-62
2022/05/03 14:19:31;;;;;;;21.33;15.60;;;;;;;23.32;35.77;101716.06;5096543;28;20028;-61
2022/05/03 14:21:57;;;;;;;20.35;15.55;;;;;;;23.15;36.59;101711.13;5096112;28;20020;-62
2022/05/03 14:24:26;;;;;;;27.50;17.60;;;;;;;22.92;37.15;101710.91;5095964;28;20038;-62
2022/05/03 14:26:52;;;;;;;22.17;15.82;;;;;;;22.81;37.83;101705.75;5096015;28;20046;-62
2022/05/03 14:29:18;;;;;;;24.75;17.33;;;;;;;22.62;39.00;101712.53;5077866;28;20099;-61
2022/05/03 14:31:44;;;;;;;22.55;16.55;;;;;;;22.40;39.70;101717.59;5096067;28;20024;-61
2022/05/03 14:34:11;;;;;;;22.02;16.58;;;;;;;22.22;39.96;101724.28;5096087;28;20027;-61
2022/05/03 14:36:36;;;;;;;24.38;16.35;;;;;;;22.23;39.84;101716.19;5095854;28;20477;-61
2022/05/03 14:39:03;;;;;;;22.70;16.55;;;;;;;22.26;39.69;101725.97;5095750;28;20070;-62
2022/05/03 14:41:29;;;;;;;30.38;16.98;;;;;;;22.18;40.34;101720.78;5095682;28;20036;-62
2022/05/03 14:44:00;;;;;;;27.35;17.23;;;;;;;22.03;40.53;101717.53;5095725;28;20370;-61
2022/05/03 14:46:25;;;;;;;26.00;15.13;;;;;;;22.07;40.23;101728.19;5095670;28;20077;-62
2022/05/03 14:48:51;;;;;;;27.63;17.65;;;;;;;22.03;41.65;101717.53;5096315;28;20380;-62
2022/05/03 14:51:16;;;;;;;26.17;18.30;;;;;;;21.86;42.58;101715.22;5096766;28;20051;-62
2022/05/03 14:53:42;;;;;;;24.63;19.13;;;;;;;21.76;42.29;101717.22;5096441;28;20052;-61
2022/05/03 15:04:19;;;;;;;26.63;17.23;;;;;;;21.61;41.79;101722.94;5095656;28;20504;-62
2022/05/03 15:06:45;;;;;;;26.75;17.38;;;;;;;21.53;41.17;101723.06;5095050;28;20025;-61
2022/05/03 15:09:11;;;;;;;21.52;15.65;;;;;;;21.41;41.59;101732.31;5095523;28;20016;-61
2022/05/03 15:11:37;;;;;;;24.83;16.90;;;;;;;21.31;42.37;101722.59;5095266;28;20027;-61
2022/05/03 15:14:04;;;;;;;27.20;16.55;;;;;;;21.57;41.69;101723.91;5095163;28;20028;-61
2022/05/03 15:16:29;;;;;;;25.38;16.70;;;;;;;21.52;42.40;101723.13;5095071;28;20142;-62
2022/05/03 15:18:55;;;;;;;25.33;17.23;;;;;;;21.82;42.07;101719.78;5095082;28;20441;-61
2022/05/03 15:21:20;;;;;;;24.65;17.23;;;;;;;21.97;41.55;101719.44;5094255;28;20031;-59
2022/05/03 15:26:31;;;;;;;25.25;16.48;;;;;;;21.90;40.58;101728.56;5094583;28;20583;-61
2022/05/03 15:28:56;;;;;;;24.15;16.83;;;;;;;21.69;41.48;101718.28;5095132;28;20032;-61
2022/05/03 15:31:22;;;;;;;24.98;16.15;;;;;;;21.56;41.64;101728.41;5094684;28;20514;-61
2022/05/03 15:33:51;;;;;;;23.38;16.52;;;;;;;21.58;41.54;101718.47;5094537;28;20035;-62
2022/05/03 15:36:16;;;;;;;26.48;14.88;;;;;;;21.65;40.91;101722.81;5076162;28;20077;-61
2022/05/03 15:38:41;;;;;;;25.42;15.93;;;;;;;21.47;41.25;101721.41;5092818;28;20024;-63
2022/05/03 15:41:07;;;;;;;29.23;15.88;;;;;;;21.28;41.72;101719.97;5074620;28;20086;-62
2022/05/03 15:43:34;;;;;;;24.25;15.27;;;;;;;21.20;41.45;101713.88;5074172;28;20032;-61
2022/05/03 15:46:02;;;;;;;25.38;15.48;;;;;;;21.10;42.02;101718.53;5073990;28;20031;-61
2022/05/03 15:48:28;;;;;;;22.52;15.50;;;;;;;21.16;41.83;101721.09;5074257;28;20101;-61
2022/05/03 15:50:53;;;;;;;24.10;15.77;;;;;;;21.10;42.75;101721.22;5074425;28;20416;-62
2022/05/03 15:53:23;;;;;;;22.80;15.43;;;;;;;21.05;42.57;101725.78;5074229;28;20024;-61
2022/05/03 15:55:49;;;;;;;24.02;15.35;;;;;;;20.79;42.95;101714.63;5074189;28;20374;-62
2022/05/03 15:58:15;;;;;;;26.25;16.52;;;;;;;20.60;43.45;101716.72;5073968;28;20130;-62
2022/05/03 16:00:40;;;;;;;23.60;15.57;;;;;;;20.53;43.69;101712.41;5073994;28;20648;-62
2022/05/03 16:03:07;;;;;;;23.45;15.57;;;;;;;20.44;44.74;101716.09;5073931;28;20032;-62
2022/05/03 16:05:32;;;;;;;29.50;15.90;;;;;;;20.17;45.10;101712.00;5073753;28;20097;-62
2022/05/03 16:07:59;;;;;;;28.83;16.50;;;;;;;20.05;45.87;101718.47;5073748;28;20418;-62
2022/05/03 16:10:25;;;;;;;24.05;16.02;;;;;;;19.86;46.43;101707.09;5073811;28;20028;-62
2022/05/03 16:12:50;;;;;;;25.63;16.15;;;;;;;19.65;47.10;101705.59;5073953;28;20070;-62
2022/05/03 16:15:16;;;;;;;28.17;16.17;;;;;;;19.69;47.26;101710.00;5073642;28;20027;-62
2022/05/03 16:17:41;;;;;;;26.52;16.23;;;;;;;19.64;47.40;101717.22;5073557;28;20016;-61
2022/05/03 16:20:09;;;;;;;28.08;15.68;;;;;;;19.69;46.35;101718.06;5073409;28;20470;-62
2022/05/03 16:22:34;;;;;;;28.73;15.75;;;;;;;19.79;47.09;101709.91;5073739;28;20024;-62
2022/05/03 16:25:00;;;;;;;24.83;16.00;;;;;;;19.62;48.29;101712.81;5073461;28;20111;-62
2022/05/03 16:27:26;;;;;;;23.60;15.30;;;;;;;19.56;47.22;101711.03;5073332;28;20029;-62
2022/05/03 16:29:52;;;;;;;27.10;16.17;;;;;;;19.60;47.55;101710.09;5073303;28;20492;-61
2022/05/03 16:32:17;;;;;;;28.92;15.70;;;;;;;19.46;47.11;101707.59;5073518;28;20021;-61
2022/05/03 16:34:43;;;;;;;25.70;15.65;;;;;;;19.41;48.32;101708.56;5073415;28;20406;-62
2022/05/03 16:42:38;;;;;;;23.02;14.73;;;;;;;19.15;47.44;101708.88;5093286;28;20039;-61
2022/05/03 16:45:04;;;;;;;23.98;14.60;;;;;;;19.02;48.07;101713.47;5093283;28;20115;-61
2022/05/03 16:47:30;;;;;;;23.70;14.80;;;;;;;18.87;48.27;101716.28;5092877;28;20354;-62
2022/05/03 16:49:56;;;;;;;25.00;14.60;;;;;;;18.71;49.26;101713.78;5093340;28;20031;-62
2022/05/03 16:52:23;;;;;;;24.38;15.02;;;;;;;18.59;50.03;101723.66;5093404;28;20031;-62
2022/05/03 16:54:50;;;;;;;25.83;14.10;;;;;;;18.72;49.39;101722.69;5093057;28;20119;-62
2022/05/03 16:57:16;;;;;;;22.90;14.25;;;;;;;18.57;50.06;101729.00;5093207;28;20024;-61
2022/05/03 16:59:41;;;;;;;26.42;14.25;;;;;;;18.46;49.92;101731.78;5093023;28;20028;-62
2022/05/03 17:02:07;;;;;;;22.20;13.70;;;;;;;18.26;50.59;101729.25;5092768;28;20099;-62
2022/05/03 17:04:34;;;;;;;24.38;13.70;;;;;;;18.35;50.99;101733.63;5092851;28;20023;-62
2022/05/03 17:07:00;;;;;;;24.33;13.35;;;;;;;18.42;51.14;101734.50;5092924;28;20028;-62
2022/05/03 17:09:26;;;;;;;26.40;13.77;;;;;;;18.51;50.72;101737.97;5092806;28;20462;-61
2022/05/03 17:11:51;;;;;;;23.33;13.25;;;;;;;18.29;51.16;101735.50;5092868;28;20028;-61
2022/05/03 17:14:19;;;;;;;22.88;12.73;;;;;;;18.38;50.54;101744.31;5092680;28;20035;-62
2022/05/03 17:16:46;;;;;;;22.20;13.70;;;;;;;18.18;51.05;101740.91;5092438;28;20066;-62
2022/05/03 17:19:12;;;;;;;23.60;13.43;;;;;;;18.06;51.03;101744.53;5092761;28;20027;-62
2022/05/03 17:21:39;;;;;;;23.25;13.65;;;;;;;18.07;51.04;101740.94;5092715;28;20024;-61
2022/05/03 17:24:07;;;;;;;22.30;13.15;;;;;;;17.94;51.39;101742.81;5092668;28;20381;-61
2022/05/03 17:26:33;;;;;;;19.80;12.45;;;;;;;17.86;51.47;101736.63;5092502;28;20456;-61
2022/05/03 17:28:59;;;;;;;22.60;12.15;;;;;;;17.70;51.78;101740.22;5092519;28;20043;-61
2022/05/03 17:31:30;;;;;;;24.10;12.43;;;;;;;17.56;52.40;101747.38;5092587;28;20020;-62
2022/05/03 17:33:57;;;;;;;28.67;12.97;;;;;;;17.64;52.27;101756.28;5092486;28;20028;-61
2022/05/03 17:36:22;;;;;;;22.42;12.70;;;;;;;17.60;51.97;101743.81;5092693;28;20023;-62
2022/05/03 17:38:49;;;;;;;21.58;12.18;;;;;;;17.58;52.37;101753.63;5092066;28;20491;-62
2022/05/03 17:41:16;;;;;;;25.00;11.82;;;;;;;17.56;52.39;101758.06;5092464;28;20046;-61
2022/05/03 17:43:43;;;;;;;25.42;13.73;;;;;;;17.41;52.49;101745.69;5092430;28;20046;-62
2022/05/03 17:46:09;;;;;;;19.00;12.00;;;;;;;17.43;52.32;101747.47;5092345;28;20423;-62
2022/05/03 17:48:36;;;;;;;26.60;12.93;;;;;;;17.31;52.72;101744.81;5092129;28;20518;-62
2022/05/03 17:51:03;;;;;;;24.20;12.50;;;;;;;17.39;52.63;101748.38;5095216;28;20035;-61
2022/05/03 17:56:13;;;;;;;22.17;12.13;;;;;;;17.26;52.52;101744.84;5096653;28;20142;-61
2022/05/03 17:58:40;;;;;;;23.65;12.30;;;;;;;17.26;52.49;101754.63;5096117;28;20031;-62
2022/05/03 18:01:06;;;;;;;21.40;11.57;;;;;;;17.26;52.49;101762.66;5096096;28;20024;-61
2022/05/03 18:03:32;;;;;;;21.88;12.65;;;;;;;17.20;52.77;101751.97;5096640;28;20020;-62
2022/05/03 18:05:58;;;;;;;22.85;11.98;;;;;;;17.06;53.14;101753.78;5096239;28;20402;-61
2022/05/03 18:08:23;;;;;;;23.75;12.18;;;;;;;17.22;52.77;101745.72;5096165;28;20525;-61
2022/05/03 18:10:49;;;;;;;21.35;12.65;;;;;;;17.19;52.71;101752.84;5096084;28;20028;-61
2022/05/03 18:13:16;;;;;;;24.83;12.25;;;;;;;17.20;52.95;101757.28;5096121;28;20027;-61
2022/05/03 18:15:43;;;;;;;21.55;11.73;;;;;;;17.24;52.83;101754.63;5095855;28;20035;-62
2022/05/03 18:18:13;;;;;;;23.27;12.55;;;;;;;17.02;53.36;101753.78;5096070;28;20039;-61
2022/05/03 18:20:40;;;;;;;19.35;11.18;;;;;;;17.00;52.94;101760.91;5095821;28;20052;-62
2022/05/03 18:23:06;;;;;;;26.08;11.77;;;;;;;16.92;52.96;101761.81;5095977;28;20553;-61
2022/05/03 18:25:32;;;;;;;23.23;12.57;;;;;;;16.89;53.39;101765.34;5095919;28;20383;-61
2022/05/03 18:27:57;;;;;;;25.27;12.07;;;;;;;16.85;53.17;101766.25;5095621;28;20032;-61
2022/05/03 18:30:24;;;;;;;25.85;11.85;;;;;;;16.84;53.56;101761.81;5095604;28;20062;-61
2022/05/03 18:32:51;;;;;;;23.58;10.90;;;;;;;16.84;53.44;101763.59;5077226;28;20127;-61
2022/05/03 18:35:17;;;;;;;21.20;10.80;;;;;;;16.85;53.41;101760.91;5095770;28;20089;-62
2022/05/03 18:37:43;;;;;;;21.73;11.43;;;;;;;16.76;53.33;101768.91;5095387;28;20028;-62
2022/05/03 18:40:09;;;;;;;22.92;11.45;;;;;;;16.70;53.39;101771.53;5082026;28;20413;-62
2022/05/03 18:42:35;;;;;;;24.60;11.90;;;;;;;16.62;53.76;101765.34;5057416;28;20025;-62
2022/05/03 18:45:02;;;;;;;25.10;11.77;;;;;;;16.58;53.65;101766.22;5075259;28;20477;-62
2022/05/03 18:47:46;;;;;;;23.45;11.38;;;;;;;16.60;53.52;101756.41;5074928;28;20115;-62
2022/05/03 18:50:12;;;;;;;23.15;10.38;;;;;;;16.58;53.43;101764.44;5058586;28;20078;-62